Terminal Aerodrome Forecast
Issued by NWS Louisville, KY

Home | Current Version | Previous Version | Text Only | Print | Product List | Glossary On
Versions: 1 2 3 4 5 6 7 8 9 10 11 12 13 14 15 16 17 18 19 20 21 22 23 24
870
FTUS43 KLMK 230918 AAA
TAFBWG
TAF AMD
KBWG 230918Z 2309/2406 04009KT P6SM -SHRA OVC021
     FM232300 02007KT P6SM VCSH BKN035=

USA.gov is the U.S. government's official web portal to all federal, state and local government web resources and services.